Time;durP1;ratioP1;P1;durP2;ratioP2;P2;SDS_P1;SDS_P2;PMS_P1;PMS_P2;Temp;Humidity;BMP_temperature;BMP_pressure;BME280_temperature;BME280_humidity;BME280_pressure;Samples;Min_cycle;Max_cycle;Signal;HPM_P1;HPM_P2
2022/12/01 00:01:14;;;;;;;0.03;0.03;;;;;;;3.07;100.00;101599.16;6259947;22;19999;-76
2022/12/01 00:03:40;;;;;;;0.10;0.10;;;;;;;3.19;100.00;101594.94;6212734;22;20003;-75
2022/12/01 00:06:11;;;;;;;0.00;0.00;;;;;;;3.35;100.00;101603.88;6210650;22;20094;-75
2022/12/01 00:08:36;;;;;;;0.10;0.10;;;;;;;3.38;100.00;101603.50;6235393;22;20012;-78
2022/12/01 00:11:08;;;;;;;0.00;0.00;;;;;;;3.43;100.00;101617.28;6240260;22;20052;-77
2022/12/01 00:13:34;;;;;;;0.00;0.00;;;;;;;3.41;100.00;101609.34;6243747;22;20082;-75
2022/12/01 00:16:14;;;;;;;0.00;0.00;;;;;;;3.48;100.00;101609.44;6272112;22;20061;-76
2022/12/01 00:18:40;;;;;;;0.05;0.05;;;;;;;3.49;100.00;101600.31;6243185;22;19996;-77
2022/12/01 00:21:12;;;;;;;0.00;0.00;;;;;;;3.53;100.00;101607.00;6191952;22;20007;-75
2022/12/01 00:23:37;;;;;;;0.00;0.00;;;;;;;3.55;100.00;101609.50;6243201;22;20015;-75
2022/12/01 00:26:06;;;;;;;0.10;0.10;;;;;;;3.49;100.00;101606.53;6213146;22;20008;-74
2022/12/01 00:28:31;;;;;;;0.00;0.00;;;;;;;3.40;100.00;101602.28;6193022;22;20010;-75
2022/12/01 00:30:57;;;;;;;0.00;0.00;;;;;;;3.40;100.00;101601.44;6240150;22;20012;-74
2022/12/01 00:33:22;;;;;;;0.00;0.00;;;;;;;3.40;100.00;101598.72;6243221;22;20062;-75
2022/12/01 00:35:47;;;;;;;0.00;0.00;;;;;;;3.42;100.00;101591.28;6215331;22;20065;-74
2022/12/01 00:38:13;;;;;;;0.00;0.00;;;;;;;3.47;100.00;101596.94;6193438;22;20330;-74
2022/12/01 00:40:38;;;;;;;0.00;0.00;;;;;;;3.51;100.00;101587.41;6241763;22;20460;-74
2022/12/01 00:43:04;;;;;;;0.00;0.00;;;;;;;3.53;100.00;101579.13;6189715;22;20015;-73
2022/12/01 00:45:29;;;;;;;0.00;0.00;;;;;;;3.60;100.00;101572.75;6244262;22;20442;-75
2022/12/01 00:47:55;;;;;;;0.08;0.08;;;;;;;3.62;100.00;101565.28;6238842;22;20015;-74
2022/12/01 00:50:25;;;;;;;0.00;0.00;;;;;;;3.61;100.00;101557.38;6192548;22;20688;-74
2022/12/01 00:52:55;;;;;;;0.10;0.10;;;;;;;3.71;100.00;101573.25;6267734;22;20016;-75
2022/12/01 00:55:20;;;;;;;0.00;0.00;;;;;;;3.72;100.00;101566.84;6244564;22;20090;-74
2022/12/01 00:57:46;;;;;;;0.10;0.10;;;;;;;3.77;100.00;101565.22;6189886;22;20049;-75
2022/12/01 01:00:16;;;;;;;0.10;0.10;;;;;;;3.77;100.00;101559.00;6246133;22;20419;-76
2022/12/01 01:02:41;;;;;;;0.00;0.00;;;;;;;3.77;100.00;101562.53;6271353;22;19999;-76
2022/12/01 01:05:07;;;;;;;0.10;0.10;;;;;;;3.80;100.00;101564.00;6242479;22;20008;-77
2022/12/01 01:07:33;;;;;;;0.00;0.00;;;;;;;3.76;100.00;101563.53;6243604;22;20018;-75
2022/12/01 01:10:01;;;;;;;0.00;0.00;;;;;;;3.88;100.00;101588.22;6241866;22;20494;-76
2022/12/01 01:12:27;;;;;;;0.00;0.00;;;;;;;3.67;100.00;101568.25;6244346;22;20316;-76
2022/12/01 01:14:55;;;;;;;0.00;0.00;;;;;;;3.73;100.00;101584.75;6239418;22;20008;-76
2022/12/01 01:17:20;;;;;;;0.00;0.00;;;;;;;3.71;100.00;101597.63;6245979;22;20049;-77
2022/12/01 01:19:53;;;;;;;0.10;0.10;;;;;;;3.67;100.00;101603.41;6218855;22;20012;-78
2022/12/01 01:22:19;;;;;;;0.00;0.00;;;;;;;3.71;100.00;101603.03;6220775;22;20018;-76
2022/12/01 01:24:44;;;;;;;0.10;0.10;;;;;;;3.66;100.00;101618.00;6244061;22;20007;-74
2022/12/01 01:27:09;;;;;;;0.00;0.00;;;;;;;3.60;100.00;101629.53;6267757;22;20008;-76
2022/12/01 01:29:35;;;;;;;0.00;0.00;;;;;;;3.51;100.00;101636.09;6195103;22;20115;-78
2022/12/01 01:32:01;;;;;;;0.00;0.00;;;;;;;3.46;100.00;101633.13;6246097;22;20003;-78
2022/12/01 01:34:27;;;;;;;0.00;0.00;;;;;;;3.41;100.00;101635.56;6244978;22;20008;-77
2022/12/01 01:36:52;;;;;;;0.10;0.10;;;;;;;3.35;100.00;101634.44;6242338;22;20026;-77
2022/12/01 01:39:18;;;;;;;0.00;0.00;;;;;;;3.29;100.00;101643.31;6195665;22;20007;-77
2022/12/01 01:41:43;;;;;;;0.00;0.00;;;;;;;3.24;100.00;101638.47;6220881;22;20037;-77
2022/12/01 01:44:48;;;;;;;0.00;0.00;;;;;;;3.25;100.00;101637.44;6218126;22;20414;-78
2022/12/01 01:47:15;;;;;;;0.00;0.00;;;;;;;3.22;100.00;101637.81;6242868;22;20011;-81
2022/12/01 01:49:41;;;;;;;0.00;0.00;;;;;;;3.22;100.00;101643.22;6272189;22;20030;-79
2022/12/01 01:52:16;;;;;;;0.10;0.10;;;;;;;3.20;100.00;101647.13;6245133;22;20008;-79
2022/12/01 01:54:43;;;;;;;;;;;;;;;3.25;100.00;101648.25;6245793;22;19999;-79
2022/12/01 01:57:12;;;;;;;0.00;0.00;;;;;;;3.26;100.00;101644.53;6245653;22;19948;-79
2022/12/01 01:59:44;;;;;;;0.00;0.00;;;;;;;3.25;100.00;101645.53;6243987;22;20004;-81
2022/12/01 02:02:11;;;;;;;0.00;0.00;;;;;;;3.28;100.00;101653.28;6247678;22;19999;-81
2022/12/01 02:04:40;;;;;;;0.00;0.00;;;;;;;3.28;100.00;101645.16;6242310;22;20422;-79
2022/12/01 02:07:07;;;;;;;0.00;0.00;;;;;;;3.31;100.00;101647.53;6247982;22;20427;-79
2022/12/01 02:09:33;;;;;;;0.00;0.00;;;;;;;3.31;100.00;101631.31;6244755;22;20012;-79
2022/12/01 02:12:33;;;;;;;0.00;0.00;;;;;;;3.25;100.00;101615.81;6247327;22;20003;-80
2022/12/01 02:15:06;;;;;;;0.10;0.10;;;;;;;3.36;100.00;101627.16;6242235;22;20236;-80
2022/12/01 02:17:55;;;;;;;0.00;0.00;;;;;;;3.34;100.00;101623.81;6246560;22;20033;-79
2022/12/01 02:20:42;;;;;;;0.00;0.00;;;;;;;3.31;100.00;101625.88;6215552;22;20607;-81
2022/12/01 02:23:49;;;;;;;0.00;0.00;;;;;;;3.32;100.00;101627.53;6247709;22;20029;-79
2022/12/01 02:26:42;;;;;;;0.00;0.00;;;;;;;3.30;100.00;101613.38;6245987;22;20008;-80
2022/12/01 02:29:40;;;;;;;0.10;0.10;;;;;;;3.31;100.00;101609.66;6245186;22;20004;-80
2022/12/01 02:32:25;;;;;;;0.10;0.10;;;;;;;3.32;100.00;101611.31;6242298;22;20014;-80
2022/12/01 02:34:56;;;;;;;0.00;0.00;;;;;;;3.31;100.00;101609.66;6245942;22;20008;-80
2022/12/01 02:37:31;;;;;;;0.00;0.00;;;;;;;3.19;100.00;101594.94;6242435;22;20042;-80
2022/12/01 02:40:06;;;;;;;0.03;0.03;;;;;;;3.18;100.00;101589.72;6245732;22;19999;-77
2022/12/01 02:43:02;;;;;;;0.00;0.00;;;;;;;3.21;100.00;101587.47;6227634;22;20049;-76
2022/12/01 02:45:42;;;;;;;0.00;0.00;;;;;;;3.22;100.00;101583.75;6240641;22;20016;-77
2022/12/01 02:48:26;;;;;;;0.00;0.00;;;;;;;3.21;100.00;101582.06;6244966;22;20008;-80
2022/12/01 02:50:54;;;;;;;0.00;0.00;;;;;;;3.23;100.00;101590.84;6239760;22;20094;-78
2022/12/01 02:53:21;;;;;;;0.00;0.00;;;;;;;3.21;100.00;101576.66;6242285;22;20006;-78
2022/12/01 02:55:50;;;;;;;0.10;0.10;;;;;;;3.24;100.00;101581.72;6241029;22;20004;-79
2022/12/01 02:58:30;;;;;;;0.00;0.00;;;;;;;3.19;100.00;101570.59;6269260;22;19996;-79
2022/12/01 03:01:16;;;;;;;0.05;0.05;;;;;;;3.21;100.00;101582.06;6244212;22;20030;-81
2022/12/01 03:04:15;;;;;;;0.00;0.00;;;;;;;3.20;100.00;101574.13;6245326;22;20034;-77
2022/12/01 03:07:09;;;;;;;0.00;0.00;;;;;;;3.14;100.00;101573.88;6242624;22;20054;-77
2022/12/01 03:09:48;;;;;;;0.08;0.08;;;;;;;3.11;100.00;101578.81;6242533;22;20418;-77
2022/12/01 03:12:36;;;;;;;0.00;0.00;;;;;;;3.10;100.00;101583.38;6238494;22;20065;-77
2022/12/01 03:15:29;;;;;;;0.00;0.00;;;;;;;3.08;100.00;101581.91;6239393;22;20008;-78
2022/12/01 03:18:11;;;;;;;0.10;0.10;;;;;;;3.01;100.00;101564.75;6271480;22;19996;-77
2022/12/01 03:20:45;;;;;;;0.00;0.00;;;;;;;2.95;100.00;101561.78;6242275;22;20003;-78
2022/12/01 03:23:16;;;;;;;0.10;0.10;;;;;;;2.94;100.00;101565.50;6240979;22;20010;-78
2022/12/01 03:25:46;;;;;;;0.10;0.10;;;;;;;2.93;100.00;101577.34;6268860;22;20004;-78
2022/12/01 03:28:14;;;;;;;0.10;0.10;;;;;;;2.90;100.00;101585.81;6263661;22;20004;-77
2022/12/01 03:30:42;;;;;;;0.05;0.05;;;;;;;2.81;100.00;101570.75;6243804;22;20467;-78
2022/12/01 03:33:22;;;;;;;0.00;0.00;;;;;;;2.77;100.00;101574.84;6239579;22;20010;-77
2022/12/01 03:36:07;;;;;;;0.10;0.10;;;;;;;2.69;100.00;101572.25;6243166;22;20082;-79
2022/12/01 03:38:37;;;;;;;0.00;0.00;;;;;;;2.65;100.00;101592.53;6239050;22;20004;-78
2022/12/01 03:41:11;;;;;;;0.10;0.10;;;;;;;2.55;100.00;101595.50;6241624;22;20011;-77
2022/12/01 03:43:41;;;;;;;0.00;0.00;;;;;;;2.43;100.00;101595.09;6265980;22;20830;-77
2022/12/01 03:46:14;;;;;;;0.00;0.00;;;;;;;2.49;100.00;101613.25;6224723;23;20013;-78
2022/12/01 03:48:41;;;;;;;0.00;0.00;;;;;;;2.36;100.00;101594.16;6210258;23;20484;-78
2022/12/01 03:51:44;;;;;;;0.00;0.00;;;;;;;2.46;100.00;101616.34;6186585;23;20008;-78
2022/12/01 03:54:18;;;;;;;0.00;0.00;;;;;;;2.42;100.00;101615.00;6207102;23;20004;-78
2022/12/01 03:56:54;;;;;;;0.00;0.00;;;;;;;2.37;100.00;101609.34;6210174;23;20027;-77
2022/12/01 03:59:22;;;;;;;0.10;0.10;;;;;;;2.37;100.00;101622.84;6206526;23;20300;-77
2022/12/01 04:01:49;;;;;;;0.00;0.00;;;;;;;2.26;100.00;101619.56;6211066;23;20004;-76
2022/12/01 04:04:15;;;;;;;0.00;0.00;;;;;;;2.21;100.00;101621.94;6207882;23;20350;-77
2022/12/01 04:06:43;;;;;;;0.00;0.00;;;;;;;2.14;100.00;101618.28;6162323;23;20004;-76
2022/12/01 04:09:09;;;;;;;0.05;0.05;;;;;;;2.11;100.00;101613.25;6208574;23;20097;-76
2022/12/01 04:14:19;;;;;;;0.00;0.00;;;;;;;2.03;100.00;101626.81;6233940;23;20023;-77
2022/12/01 04:16:44;;;;;;;0.00;0.00;;;;;;;1.90;100.00;101627.44;6188282;23;20016;-77
2022/12/01 04:19:10;;;;;;;0.00;0.00;;;;;;;1.90;100.00;101633.66;6206587;23;20030;-77
2022/12/01 04:21:35;;;;;;;0.00;0.00;;;;;;;1.84;100.00;101634.38;6180917;23;20058;-75
2022/12/01 04:24:01;;;;;;;0.00;0.00;;;;;;;1.72;100.00;101627.69;6188354;23;20047;-75
2022/12/01 04:26:32;;;;;;;0.08;0.08;;;;;;;1.69;100.00;101636.97;6179623;23;20488;-76
2022/12/01 04:29:03;;;;;;;0.00;0.00;;;;;;;1.66;100.00;101631.94;6181671;23;20438;-75
2022/12/01 04:31:28;;;;;;;0.10;0.10;;;;;;;1.47;100.00;101614.34;6207475;23;20012;-75
2022/12/01 04:33:57;;;;;;;0.10;0.10;;;;;;;1.48;100.00;101629.50;6186453;23;20014;-75
2022/12/01 04:36:24;;;;;;;0.00;0.00;;;;;;;1.40;100.00;101621.44;6206346;23;20056;-75
2022/12/01 04:38:50;;;;;;;0.00;0.00;;;;;;;1.41;100.00;101623.13;6160525;23;20570;-75
2022/12/01 04:41:16;;;;;;;0.00;0.00;;;;;;;1.42;100.00;101619.44;6211149;23;20019;-75
2022/12/01 04:43:41;;;;;;;0.00;0.00;;;;;;;1.44;100.00;101617.41;6208309;23;20026;-75
2022/12/01 04:46:07;;;;;;;0.10;0.10;;;;;;;1.52;100.00;101628.16;6221333;22;20034;-74
2022/12/01 04:48:34;;;;;;;0.00;0.00;;;;;;;1.54;100.00;101623.41;6240530;22;20069;-75
2022/12/01 04:51:01;;;;;;;0.00;0.00;;;;;;;1.59;100.00;101630.97;6244335;22;20007;-78
2022/12/01 04:53:26;;;;;;;0.10;0.10;;;;;;;1.63;100.00;101636.84;6211057;22;20091;-78
2022/12/01 04:55:52;;;;;;;0.10;0.10;;;;;;;1.67;100.00;101643.56;6220256;22;20054;-80
2022/12/01 04:58:17;;;;;;;0.00;0.00;;;;;;;1.68;100.00;101639.84;6220286;22;20590;-80
2022/12/01 05:00:43;;;;;;;0.00;0.00;;;;;;;1.63;100.00;101631.47;6240052;22;20145;-77
2022/12/01 05:03:08;;;;;;;0.00;0.00;;;;;;;1.60;100.00;101629.13;6219117;22;20419;-79
2022/12/01 05:05:34;;;;;;;0.00;0.00;;;;;;;1.63;100.00;101634.16;6189331;22;20091;-80
2022/12/01 05:07:59;;;;;;;0.10;0.10;;;;;;;1.66;100.00;101641.88;6190762;22;20004;-80
2022/12/01 05:10:25;;;;;;;0.00;0.00;;;;;;;1.61;100.00;101630.78;6213436;22;20012;-80
2022/12/01 05:12:52;;;;;;;0.05;0.05;;;;;;;1.60;100.00;101635.34;6246287;22;20007;-76
2022/12/01 05:15:17;;;;;;;0.00;0.00;;;;;;;1.57;100.00;101635.69;6275730;22;20078;-76
2022/12/01 05:17:43;;;;;;;0.00;0.00;;;;;;;1.59;100.00;101640.91;6240416;22;20007;-80
2022/12/01 05:23:01;;;;;;;0.00;0.00;;;;;;;1.62;100.00;101654.03;6270095;22;20088;-77
2022/12/01 05:25:27;;;;;;;0.00;0.00;;;;;;;1.64;100.00;101650.16;6217324;22;20012;-75
2022/12/01 05:27:52;;;;;;;0.00;0.00;;;;;;;1.69;100.00;101644.22;6187341;22;20011;-75
2022/12/01 05:30:18;;;;;;;0.08;0.08;;;;;;;1.68;100.00;101646.09;6214448;22;20090;-77
2022/12/01 05:32:43;;;;;;;0.00;0.00;;;;;;;1.75;100.00;101657.00;6269733;22;20004;-76
2022/12/01 05:35:11;;;;;;;0.00;0.00;;;;;;;1.71;100.00;101644.91;6213869;22;20388;-76
2022/12/01 05:37:37;;;;;;;0.00;0.00;;;;;;;1.74;100.00;101649.94;6243685;22;20327;-75
2022/12/01 05:40:03;;;;;;;0.00;0.00;;;;;;;1.80;100.00;101660.00;6236484;22;19999;-75
2022/12/01 05:42:31;;;;;;;0.00;0.00;;;;;;;1.83;100.00;101656.97;6243132;22;20031;-74
2022/12/01 05:44:56;;;;;;;0.00;0.00;;;;;;;1.89;100.00;101652.72;6239746;22;20008;-76
2022/12/01 05:47:31;;;;;;;0.00;0.00;;;;;;;1.90;100.00;101649.84;6242097;22;20014;-75
2022/12/01 05:49:57;;;;;;;0.00;0.00;;;;;;;1.91;100.00;101639.88;6215613;22;20457;-75
2022/12/01 05:52:22;;;;;;;0.00;0.00;;;;;;;2.01;100.00;101647.75;6217685;22;19999;-76
2022/12/01 05:54:50;;;;;;;0.00;0.00;;;;;;;1.93;100.00;101637.84;6243065;22;20087;-76
2022/12/01 05:57:16;;;;;;;0.00;0.00;;;;;;;2.01;100.00;101655.84;6239194;22;20038;-75
2022/12/01 05:59:41;;;;;;;0.00;0.00;;;;;;;1.98;100.00;101640.84;6218708;22;20004;-75
2022/12/01 06:02:06;;;;;;;0.00;0.00;;;;;;;2.12;100.00;101659.97;6212683;22;20580;-74
2022/12/01 06:04:35;;;;;;;0.00;0.00;;;;;;;2.11;100.00;101656.44;6244622;22;20022;-75
2022/12/01 06:07:02;;;;;;;0.10;0.10;;;;;;;2.06;100.00;101648.06;6236888;22;20007;-74
2022/12/01 06:09:30;;;;;;;0.00;0.00;;;;;;;2.06;100.00;101639.97;6218361;22;20027;-75
2022/12/01 06:11:58;;;;;;;0.10;0.10;;;;;;;2.15;100.00;101638.88;6216955;22;20389;-75
2022/12/01 06:14:23;;;;;;;0.00;0.00;;;;;;;2.31;100.00;101653.25;6241785;22;20508;-75
2022/12/01 06:16:48;;;;;;;0.03;0.03;;;;;;;2.25;100.00;101650.25;6242540;22;20015;-75
2022/12/01 06:19:14;;;;;;;0.00;0.00;;;;;;;2.27;100.00;101648.22;6186863;22;20004;-75
2022/12/01 06:21:39;;;;;;;0.00;0.00;;;;;;;2.25;100.00;101647.56;6238735;22;20086;-75
2022/12/01 06:24:05;;;;;;;0.10;0.10;;;;;;;2.27;100.00;101656.31;6238595;22;20018;-75
2022/12/01 06:26:33;;;;;;;0.10;0.10;;;;;;;2.22;100.00;101653.31;6190304;22;20022;-75
2022/12/01 06:28:58;;;;;;;0.00;0.00;;;;;;;2.17;100.00;101652.19;6214299;22;20075;-75
2022/12/01 06:31:24;;;;;;;0.00;0.00;;;;;;;2.19;100.00;101658.22;6213004;22;20781;-74
2022/12/01 06:33:49;;;;;;;0.00;0.00;;;;;;;2.13;100.00;101640.88;6242950;22;20014;-74
2022/12/01 06:36:15;;;;;;;0.05;0.05;;;;;;;2.10;100.00;101643.97;6239126;22;20008;-76
2022/12/01 06:38:40;;;;;;;0.00;0.00;;;;;;;2.17;100.00;101650.31;6236819;22;20003;-74
2022/12/01 06:41:05;;;;;;;0.10;0.10;;;;;;;2.16;100.00;101643.25;6243641;22;20028;-75
2022/12/01 06:43:37;;;;;;;0.00;0.00;;;;;;;2.11;100.00;101637.53;6239754;22;20007;-75
2022/12/01 06:46:05;;;;;;;0.00;0.00;;;;;;;2.10;100.00;101635.84;6239252;22;20015;-77
2022/12/01 06:48:33;;;;;;;0.10;0.10;;;;;;;2.12;100.00;101646.47;6214109;22;20011;-76
2022/12/01 06:50:59;;;;;;;0.00;0.00;;;;;;;2.09;100.00;101642.28;6240129;22;20010;-75
2022/12/01 06:53:26;;;;;;;0.00;0.00;;;;;;;2.14;100.00;101649.84;6215123;22;20676;-78
2022/12/01 06:55:51;;;;;;;0.00;0.00;;;;;;;2.01;100.00;101642.34;6217256;22;20342;-75
2022/12/01 06:58:17;;;;;;;0.00;0.00;;;;;;;2.06;100.00;101648.88;6241568;22;20008;-75
2022/12/01 07:00:42;;;;;;;0.10;0.10;;;;;;;2.07;100.00;101649.72;6238068;22;20007;-76
2022/12/01 07:03:08;;;;;;;0.00;0.00;;;;;;;2.06;100.00;101653.44;6213200;22;20505;-75
2022/12/01 07:05:33;;;;;;;0.00;0.00;;;;;;;2.15;100.00;101665.03;6236821;22;20012;-75
2022/12/01 07:08:02;;;;;;;0.00;0.00;;;;;;;2.09;100.00;101651.22;6243208;22;20022;-77
2022/12/01 07:10:27;;;;;;;0.00;0.00;;;;;;;2.07;100.00;101657.81;6237080;22;20220;-77
2022/12/01 07:12:55;;;;;;;0.00;0.00;;;;;;;2.13;100.00;101661.66;6268029;22;20331;-77
2022/12/01 07:15:22;;;;;;;0.00;0.00;;;;;;;2.16;100.00;101664.84;6267224;22;20004;-78
2022/12/01 07:17:47;;;;;;;0.10;0.10;;;;;;;2.10;100.00;101665.53;6267185;22;20312;-76
2022/12/01 07:20:13;;;;;;;0.10;0.10;;;;;;;2.19;100.00;101674.41;6216406;22;20006;-77
2022/12/01 07:22:41;;;;;;;0.00;0.00;;;;;;;2.11;100.00;101672.63;6237713;22;20329;-78
2022/12/01 07:25:08;;;;;;;0.10;0.10;;;;;;;2.09;100.00;101667.41;6217185;22;20008;-78
2022/12/01 07:27:34;;;;;;;0.10;0.10;;;;;;;2.17;100.00;101673.78;6243525;22;20000;-79
2022/12/01 07:30:03;;;;;;;0.10;0.10;;;;;;;2.14;100.00;101664.16;6239868;22;20240;-77
2022/12/01 07:32:36;;;;;;;0.00;0.00;;;;;;;2.22;100.00;101677.63;6242589;22;20026;-79
2022/12/01 07:35:04;;;;;;;0.00;0.00;;;;;;;2.21;100.00;101684.03;6215656;22;20014;-78
2022/12/01 07:37:29;;;;;;;0.00;0.00;;;;;;;2.23;100.00;101683.84;6241999;22;20018;-78
2022/12/01 07:39:57;;;;;;;0.00;0.00;;;;;;;2.18;100.00;101673.59;6213688;22;20009;-79
2022/12/01 07:42:24;;;;;;;0.00;0.00;;;;;;;2.25;100.00;101696.16;6192839;22;20329;-78
2022/12/01 07:44:50;;;;;;;0.00;0.00;;;;;;;2.13;100.00;101670.56;6187137;22;20418;-80
2022/12/01 07:47:15;;;;;;;0.00;0.00;;;;;;;2.19;100.00;101696.88;6242117;22;20090;-78
2022/12/01 07:49:41;;;;;;;0.00;0.00;;;;;;;2.22;100.00;101693.81;6240384;22;20426;-77
2022/12/01 07:52:08;;;;;;;0.00;0.00;;;;;;;2.20;100.00;101698.53;6236112;22;20008;-75
2022/12/01 07:54:34;;;;;;;0.00;0.00;;;;;;;2.07;100.00;101682.09;6270173;22;20456;-77
2022/12/01 07:56:59;;;;;;;0.00;0.00;;;;;;;2.22;100.00;101718.09;6235775;22;20003;-75
2022/12/01 07:59:25;;;;;;;0.10;0.10;;;;;;;2.16;100.00;101704.47;6240884;22;20003;-76
2022/12/01 08:01:53;;;;;;;0.08;0.08;;;;;;;2.14;100.00;101699.25;6263762;22;20004;-78
2022/12/01 08:04:18;;;;;;;0.10;0.10;;;;;;;2.07;100.00;101709.09;6241202;22;20035;-78
2022/12/01 08:06:43;;;;;;;0.00;0.00;;;;;;;2.09;100.00;101718.69;6190480;22;20334;-79
2022/12/01 08:10:04;;;;;;;;;;;;;;;;;;;;;
2022/12/01 08:12:48;;;;;;;0.00;0.00;;;;;;;2.09;100.00;101717.84;6236320;22;20392;-77
2022/12/01 08:15:26;;;;;;;;;;;;;;;;;;;;;
2022/12/01 08:17:52;;;;;;;0.00;0.00;;;;;;;2.25;100.00;101744.72;6268868;22;20106;-80
2022/12/01 08:20:20;;;;;;;0.00;0.00;;;;;;;2.21;100.00;101734.47;6241840;22;20035;-78
2022/12/01 08:22:46;;;;;;;0.05;0.05;;;;;;;2.26;100.00;101742.88;6239449;22;19999;-77
2022/12/01 08:25:11;;;;;;;0.00;0.00;;;;;;;2.31;100.00;101753.13;6242419;22;20015;-78
2022/12/01 08:27:36;;;;;;;0.00;0.00;;;;;;;2.27;100.00;101748.09;6265805;22;20027;-77
2022/12/01 08:30:08;;;;;;;0.00;0.00;;;;;;;2.19;100.00;101729.25;6233821;22;20086;-76
2022/12/01 08:32:33;;;;;;;0.00;0.00;;;;;;;2.39;100.00;101747.69;6215016;22;20404;-76
2022/12/01 08:35:06;;;;;;;0.00;0.00;;;;;;;2.50;100.00;101736.47;6185603;22;20035;-77
2022/12/01 08:37:55;;;;;;;0.00;0.00;;;;;;;2.62;100.00;101734.19;6213220;22;20011;-76
2022/12/01 08:40:24;;;;;;;0.00;0.00;;;;;;;2.76;100.00;101746.91;6238265;22;19991;-76
2022/12/01 08:43:00;;;;;;;0.00;0.00;;;;;;;2.75;100.00;101741.69;6215951;22;20004;-76
2022/12/01 08:45:30;;;;;;;0.10;0.10;;;;;;;2.84;100.00;101743.28;6243833;22;20024;-79
2022/12/01 08:48:06;;;;;;;0.10;0.10;;;;;;;2.89;100.00;101751.69;6219062;22;20015;-80
2022/12/01 08:50:31;;;;;;;0.00;0.00;;;;;;;2.88;100.00;101733.78;6220673;22;20008;-85
2022/12/01 08:53:27;;;;;;;;;;;;;;;;;;;;;
2022/12/01 08:55:58;;;;;;;0.00;0.00;;;;;;;3.25;100.00;101739.34;6257012;22;20090;-80
2022/12/01 08:59:35;;;;;;;0.00;0.00;;;;;;;3.37;100.00;101737.00;6243689;22;20453;-83
2022/12/01 09:03:04;;;;;;;;;;;;;;;;;;;;;
2022/12/01 09:05:36;;;;;;;;;;;;;;;;;;;;;
2022/12/01 09:10:54;;;;;;;0.00;0.00;;;;;;;3.86;100.00;101747.25;6243215;22;20101;-82
2022/12/01 09:13:28;;;;;;;0.00;0.00;;;;;;;3.97;100.00;101746.78;6245047;22;19999;-83
2022/12/01 09:16:15;;;;;;;0.10;0.10;;;;;;;4.28;100.00;101769.16;6238940;22;20065;-80
2022/12/01 09:18:41;;;;;;;0.00;0.00;;;;;;;4.33;100.00;101748.63;6243995;22;20027;-78
2022/12/01 09:21:35;;;;;;;0.00;0.00;;;;;;;4.31;100.00;101749.88;6242063;22;19999;-79
2022/12/01 09:24:02;;;;;;;0.10;0.10;;;;;;;4.21;100.00;101761.00;6238992;22;20000;-79
2022/12/01 09:26:33;;;;;;;0.10;0.10;;;;;;;4.30;100.00;101765.25;6244285;22;20008;-79
2022/12/01 09:29:05;;;;;;;0.00;0.00;;;;;;;4.29;100.00;101741.94;6244237;22;20094;-78
2022/12/01 09:31:42;;;;;;;0.00;0.00;;;;;;;4.42;100.00;101762.03;6237160;22;20015;-79
2022/12/01 09:34:16;;;;;;;0.08;0.08;;;;;;;4.53;100.00;101775.09;6245360;22;20011;-78
2022/12/01 09:36:41;;;;;;;0.10;0.10;;;;;;;4.51;100.00;101755.47;6238280;22;20008;-80
2022/12/01 09:39:20;;;;;;;0.00;0.00;;;;;;;4.76;100.00;101768.63;6240697;22;20343;-77
2022/12/01 09:42:06;;;;;;;0.10;0.10;;;;;;;4.72;100.00;101776.31;6217120;22;20011;-79
2022/12/01 09:44:51;;;;;;;0.00;0.00;;;;;;;4.81;100.00;101766.19;6245502;22;20086;-78
2022/12/01 09:47:20;;;;;;;0.00;0.00;;;;;;;5.04;100.00;101765.97;6239488;22;20030;-80
2022/12/01 09:49:52;;;;;;;0.00;0.00;;;;;;;5.20;100.00;101760.25;6239790;22;20007;-79
2022/12/01 09:52:32;;;;;;;;;;;;;;;;;;;;;
2022/12/01 09:55:01;;;;;;;0.10;0.10;;;;;;;5.57;100.00;101754.63;6268246;22;20079;-80
2022/12/01 09:57:38;;;;;;;0.00;0.00;;;;;;;5.96;100.00;101766.72;6237376;22;20019;-79
2022/12/01 10:00:13;;;;;;;0.03;0.03;;;;;;;6.05;100.00;101757.38;6244209;22;20079;-79
2022/12/01 10:03:05;;;;;;;0.00;0.00;;;;;;;6.42;100.00;101763.34;6267159;22;20000;-80
2022/12/01 10:05:54;;;;;;;0.10;0.10;;;;;;;6.69;100.00;101763.41;6218515;22;20039;-79
2022/12/01 10:08:25;;;;;;;0.00;0.00;;;;;;;6.96;100.00;101785.16;6245689;22;20438;-78
2022/12/01 10:11:07;;;;;;;0.00;0.00;;;;;;;7.23;100.00;101779.72;6239289;22;20045;-81
2022/12/01 10:13:36;;;;;;;0.00;0.00;;;;;;;7.18;100.00;101779.53;6241346;22;20305;-77
2022/12/01 10:16:01;;;;;;;0.00;0.00;;;;;;;7.29;100.00;101784.34;6214940;22;20011;-79
2022/12/01 10:18:47;;;;;;;0.00;0.00;;;;;;;7.25;100.00;101785.81;6241528;22;20083;-79
2022/12/01 10:21:57;;;;;;;0.00;0.00;;;;;;;7.27;100.00;101770.09;6237945;22;20057;-78
2022/12/01 10:24:41;;;;;;;0.00;0.00;;;;;;;7.37;100.00;101781.38;6226672;22;20003;-78
2022/12/01 10:27:20;;;;;;;0.00;0.00;;;;;;;7.36;100.00;101782.44;6241379;22;20008;-80
2022/12/01 10:29:58;;;;;;;0.00;0.00;;;;;;;7.40;100.00;101780.94;6234628;22;20030;-78
2022/12/01 10:32:44;;;;;;;0.00;0.00;;;;;;;7.42;100.00;101767.97;6242820;22;20007;-77
2022/12/01 10:35:18;;;;;;;0.10;0.10;;;;;;;7.66;100.00;101757.44;6265022;22;20007;-78
2022/12/01 10:37:45;;;;;;;0.00;0.00;;;;;;;7.89;100.00;101767.84;6215761;22;20004;-78
2022/12/01 10:40:18;;;;;;;0.00;0.00;;;;;;;8.02;100.00;101770.53;6237874;22;19995;-78
2022/12/01 10:42:50;;;;;;;0.00;0.00;;;;;;;8.14;100.00;101759.78;6241699;22;20004;-78
2022/12/01 10:45:26;;;;;;;0.00;0.00;;;;;;;8.12;100.00;101767.34;6232293;22;20130;-78
2022/12/01 10:48:20;;;;;;;0.00;0.00;;;;;;;8.04;100.00;101770.31;6243816;22;20007;-77
2022/12/01 10:50:51;;;;;;;0.00;0.00;;;;;;;8.04;100.00;101743.91;6242648;22;20065;-79
2022/12/01 10:53:30;;;;;;;0.00;0.00;;;;;;;8.27;100.00;101758.06;6241114;22;20010;-78
2022/12/01 10:56:01;;;;;;;0.00;0.00;;;;;;;8.42;100.00;101750.41;6243264;22;20004;-78
2022/12/01 10:58:32;;;;;;;0.00;0.00;;;;;;;8.51;100.00;101742.81;6239187;22;20031;-78
2022/12/01 11:01:03;;;;;;;0.00;0.00;;;;;;;8.55;100.00;101747.63;6241022;22;20011;-78
2022/12/01 11:03:32;;;;;;;0.00;0.00;;;;;;;8.45;100.00;101739.09;6236884;22;19999;-79
2022/12/01 11:06:03;;;;;;;0.00;0.00;;;;;;;8.43;100.00;101724.81;6268021;22;20403;-79
2022/12/01 11:08:44;;;;;;;0.00;0.00;;;;;;;8.64;100.00;101733.72;6268535;22;20029;-79
2022/12/01 11:11:22;;;;;;;0.00;0.00;;;;;;;8.80;100.00;101721.44;6242679;22;20095;-78
2022/12/01 11:13:48;;;;;;;0.00;0.00;;;;;;;8.79;100.00;101714.31;6235588;22;20015;-77
2022/12/01 11:16:32;;;;;;;0.00;0.00;;;;;;;8.73;100.00;101725.06;6217306;22;20008;-79
2022/12/01 11:19:08;;;;;;;0.05;0.05;;;;;;;8.69;100.00;101714.81;6237323;22;20007;-78
2022/12/01 11:21:33;;;;;;;0.00;0.00;;;;;;;8.88;100.00;101727.44;6240948;22;20003;-78
2022/12/01 11:23:59;;;;;;;0.00;0.00;;;;;;;9.06;100.00;101717.63;6213370;22;20011;-77
2022/12/01 11:26:26;;;;;;;0.00;0.00;;;;;;;9.34;100.00;101708.94;6265137;22;20086;-76
2022/12/01 11:29:06;;;;;;;0.00;0.00;;;;;;;9.70;100.00;101710.03;6241276;22;20124;-78
2022/12/01 11:31:58;;;;;;;0.00;0.00;;;;;;;10.30;100.00;101722.88;6240355;22;20122;-79
2022/12/01 11:34:27;;;;;;;0.00;0.00;;;;;;;10.73;100.00;101714.69;6272149;22;20029;-78
2022/12/01 11:36:58;;;;;;;0.00;0.00;;;;;;;10.98;100.00;101714.47;6241696;22;20090;-79
2022/12/01 11:39:33;;;;;;;0.00;0.00;;;;;;;10.99;100.00;101697.00;6240939;22;20006;-80
2022/12/01 11:42:02;;;;;;;0.00;0.00;;;;;;;11.05;100.00;101703.44;6236091;22;19996;-77
2022/12/01 11:44:30;;;;;;;0.00;0.00;;;;;;;10.81;100.00;101685.09;6242853;22;20003;-78
2022/12/01 11:47:13;;;;;;;0.00;0.00;;;;;;;10.58;100.00;101688.63;6262242;22;20019;-78
2022/12/01 11:49:42;;;;;;;0.07;0.07;;;;;;;10.44;100.00;101696.22;6270737;22;20058;-79
2022/12/01 11:52:20;;;;;;;0.00;0.00;;;;;;;10.39;100.00;101689.78;6238143;22;20000;-79
2022/12/01 11:55:20;;;;;;;0.00;0.00;;;;;;;10.54;100.00;101683.88;6268631;22;20548;-78
2022/12/01 11:57:52;;;;;;;0.00;0.00;;;;;;;10.80;100.00;101688.06;6271525;22;20422;-79
2022/12/01 12:00:47;;;;;;;0.00;0.00;;;;;;;11.12;100.00;101684.97;6268240;22;19999;-80
2022/12/01 12:03:19;;;;;;;0.00;0.00;;;;;;;11.27;100.00;101688.09;6244894;22;20027;-78